Time;durP1;ratioP1;P1;durP2;ratioP2;P2;SDS_P1;SDS_P2;PMS_P1;PMS_P2;Temp;Humidity;BMP_temperature;BMP_pressure;BME280_temperature;BME280_humidity;BME280_pressure;Samples;Min_cycle;Max_cycle;Signal;HPM_P1;HPM_P2
2021/12/19 00:00:07;;;;;;;12.38;6.95;;;7.80;99.90;;;;;;5103726;28;20096;-63
2021/12/19 00:10:26;;;;;;;9.15;6.40;;;7.90;99.90;;;;;;5109840;27;20040;-63
2021/12/19 00:12:52;;;;;;;9.43;7.40;;;8.00;99.90;;;;;;5106469;27;20458;-63
2021/12/19 00:15:18;;;;;;;9.52;6.72;;;7.90;99.90;;;;;;5106255;27;20036;-63
2021/12/19 00:17:44;;;;;;;11.32;7.07;;;8.00;99.90;;;;;;5106783;28;20097;-63
2021/12/19 00:20:10;;;;;;;11.32;6.93;;;7.90;99.90;;;;;;5105018;27;20050;-63
2021/12/19 00:22:36;;;;;;;10.45;7.65;;;8.00;99.90;;;;;;5103901;28;20035;-63
2021/12/19 00:25:04;;;;;;;14.40;7.25;;;7.90;99.90;;;;;;5102019;28;20039;-63
2021/12/19 00:27:29;;;;;;;11.05;8.15;;;7.90;99.90;;;;;;5103572;28;20040;-63
2021/12/19 00:29:55;;;;;;;11.63;7.22;;;7.90;99.90;;;;;;5104083;28;20043;-63
2021/12/19 00:32:20;;;;;;;13.82;8.15;;;7.90;99.90;;;;;;5104814;27;21727;-63
2021/12/19 00:34:50;;;;;;;15.00;9.40;;;7.90;99.90;;;;;;5102785;27;20036;-63
2021/12/19 00:37:20;;;;;;;14.10;8.38;;;7.90;99.90;;;;;;5106127;28;20081;-63
2021/12/19 00:39:47;;;;;;;15.65;8.80;;;7.90;99.90;;;;;;5104746;28;20075;-63
2021/12/19 00:42:23;;;;;;;14.20;9.20;;;7.90;99.90;;;;;;5107971;27;20157;-63
2021/12/19 00:44:50;;;;;;;11.93;9.20;;;7.90;99.90;;;;;;5101673;27;20051;-63
2021/12/19 00:47:15;;;;;;;13.18;9.15;;;7.90;99.90;;;;;;5103349;27;20051;-64
2021/12/19 00:49:41;;;;;;;14.85;9.50;;;7.90;99.90;;;;;;5101247;28;20093;-64
2021/12/19 00:52:07;;;;;;;13.23;9.15;;;7.90;99.90;;;;;;5104586;27;20049;-63
2021/12/19 00:54:32;;;;;;;12.88;8.75;;;7.90;99.90;;;;;;5099539;28;20619;-63
2021/12/19 00:56:58;;;;;;;14.85;10.00;;;7.90;99.90;;;;;;5099754;28;20486;-63
2021/12/19 00:59:24;;;;;;;13.77;9.80;;;7.90;99.90;;;;;;5098952;28;20425;-63
2021/12/19 01:01:49;;;;;;;16.17;10.43;;;7.90;99.90;;;;;;5099190;27;20088;-63
2021/12/19 01:04:18;;;;;;;16.25;10.40;;;7.90;99.90;;;;;;5101329;27;20127;-63
2021/12/19 01:06:45;;;;;;;13.45;8.40;;;7.90;99.90;;;;;;5100198;28;20082;-63
2021/12/19 01:09:11;;;;;;;10.02;6.25;;;7.90;99.90;;;;;;5096897;28;20067;-64
2021/12/19 01:11:38;;;;;;;5.43;3.63;;;7.90;99.90;;;;;;5100283;27;20151;-64
2021/12/19 01:14:04;;;;;;;6.47;2.50;;;7.90;99.90;;;;;;5100948;27;20737;-64
2021/12/19 01:16:31;;;;;;;4.65;2.70;;;7.80;99.90;;;;;;5129884;27;20394;-63
2021/12/19 01:18:57;;;;;;;3.30;2.20;;;7.80;99.90;;;;;;5087531;28;20096;-64
2021/12/19 01:21:23;;;;;;;4.22;1.92;;;7.80;99.90;;;;;;5098901;28;20947;-63
2021/12/19 01:23:49;;;;;;;3.75;1.98;;;7.80;99.90;;;;;;5100838;28;20115;-63
2021/12/19 01:26:15;;;;;;;4.75;2.08;;;7.80;99.90;;;;;;5100075;28;20054;-63
2021/12/19 01:28:42;;;;;;;3.92;2.30;;;7.80;99.90;;;;;;5096397;28;20143;-63
2021/12/19 01:31:09;;;;;;;4.43;2.10;;;7.70;99.90;;;;;;5095284;28;20039;-63
2021/12/19 01:33:35;;;;;;;5.82;2.97;;;7.80;99.90;;;;;;5101663;27;20164;-63
2021/12/19 01:36:01;;;;;;;3.92;2.78;;;7.80;99.90;;;;;;5098139;28;20126;-63
2021/12/19 01:38:27;;;;;;;4.93;3.20;;;7.80;99.90;;;;;;5100491;27;20031;-63
2021/12/19 01:40:53;;;;;;;4.43;2.80;;;7.80;99.90;;;;;;5098764;27;20042;-63
2021/12/19 01:43:24;;;;;;;3.03;2.08;;;7.80;99.90;;;;;;5097972;27;20032;-63
2021/12/19 01:45:50;;;;;;;3.88;1.90;;;7.80;99.90;;;;;;5130397;27;20129;-63
2021/12/19 01:48:16;;;;;;;3.25;2.33;;;7.70;99.90;;;;;;5098816;27;20028;-63
2021/12/19 01:50:42;;;;;;;4.78;2.08;;;7.80;99.90;;;;;;5097831;27;20077;-63
2021/12/19 01:53:11;;;;;;;2.58;2.20;;;7.80;99.90;;;;;;5100505;27;20117;-63
2021/12/19 01:55:38;;;;;;;3.15;1.67;;;7.80;99.90;;;;;;5099242;27;20059;-63
2021/12/19 01:58:04;;;;;;;2.70;1.48;;;7.80;99.90;;;;;;5128893;27;20053;-63
2021/12/19 02:00:34;;;;;;;2.83;1.85;;;7.80;99.90;;;;;;5098616;28;20039;-63
2021/12/19 02:03:01;;;;;;;2.78;1.40;;;7.70;99.90;;;;;;5101469;27;20059;-63
2021/12/19 02:05:28;;;;;;;1.52;1.13;;;7.70;99.90;;;;;;5101513;28;20035;-63
2021/12/19 02:07:55;;;;;;;1.20;0.52;;;7.70;99.90;;;;;;5100330;27;20075;-63
2021/12/19 02:10:23;;;;;;;2.67;0.60;;;7.70;99.90;;;;;;5097001;28;20106;-63
2021/12/19 02:12:50;;;;;;;1.13;0.50;;;7.60;99.90;;;;;;5099656;28;20079;-63
2021/12/19 02:15:21;;;;;;;0.50;0.40;;;7.70;99.90;;;;;;5095767;28;20078;-63
2021/12/19 02:17:49;;;;;;;1.95;0.45;;;7.70;99.90;;;;;;5099513;28;20648;-63
2021/12/19 02:20:16;;;;;;;1.85;0.70;;;7.70;99.90;;;;;;5099938;27;20055;-63
2021/12/19 02:22:43;;;;;;;2.20;0.73;;;7.70;99.90;;;;;;5100566;28;20046;-63
2021/12/19 02:25:09;;;;;;;1.63;0.93;;;7.70;99.90;;;;;;5099550;27;20135;-63
2021/12/19 02:27:35;;;;;;;1.05;0.63;;;7.70;99.90;;;;;;5095994;28;20108;-63
2021/12/19 02:30:03;;;;;;;1.65;1.05;;;7.60;99.90;;;;;;5100930;27;20139;-63
2021/12/19 02:32:30;;;;;;;1.77;0.73;;;7.90;99.90;;;;;;5102668;28;20556;-63
2021/12/19 02:35:00;;;;;;;1.45;0.70;;;7.70;99.90;;;;;;5105282;27;20419;-63
2021/12/19 02:40:23;;;;;;;1.10;0.60;;;7.70;99.90;;;;;;5103404;27;20513;-63
2021/12/19 02:48:13;;;;;;;0.95;0.50;;;7.70;99.90;;;;;;5101155;27;20075;-63
2021/12/19 02:50:46;;;;;;;1.67;0.93;;;7.70;99.90;;;;;;5102943;28;20036;-63
2021/12/19 02:53:25;;;;;;;4.07;0.60;;;7.70;99.90;;;;;;5102068;27;20048;-63
2021/12/19 02:55:51;;;;;;;1.80;0.68;;;7.70;99.90;;;;;;5103500;28;20042;-63
2021/12/19 02:58:16;;;;;;;1.70;0.80;;;7.70;99.90;;;;;;5101866;28;20040;-63
2021/12/19 03:00:42;;;;;;;2.92;0.60;;;7.80;99.90;;;;;;5101720;28;20035;-63
2021/12/19 03:03:08;;;;;;;2.08;0.68;;;7.70;99.90;;;;;;5103993;28;20136;-63
2021/12/19 03:05:33;;;;;;;1.30;0.50;;;7.70;99.90;;;;;;5099477;27;20046;-63
2021/12/19 03:08:02;;;;;;;1.00;0.32;;;7.70;99.90;;;;;;5101410;28;20046;-63
2021/12/19 03:18:17;;;;;;;1.38;0.50;;;7.60;99.90;;;;;;5096342;28;20190;-63
2021/12/19 03:20:43;;;;;;;2.05;0.73;;;7.60;99.90;;;;;;5098119;28;20078;-63
2021/12/19 03:23:12;;;;;;;2.53;0.80;;;7.60;99.90;;;;;;5100328;28;20043;-63
2021/12/19 03:25:38;;;;;;;2.22;0.50;;;7.60;99.90;;;;;;5100749;28;20118;-63
2021/12/19 03:28:07;;;;;;;1.60;0.73;;;7.60;99.90;;;;;;5098965;28;20803;-63
2021/12/19 03:30:33;;;;;;;2.92;0.68;;;7.60;99.90;;;;;;5097042;28;20085;-63
2021/12/19 03:33:05;;;;;;;1.27;0.50;;;7.60;99.90;;;;;;5104977;28;20049;-63
2021/12/19 03:35:32;;;;;;;2.60;0.68;;;7.60;99.90;;;;;;5128152;27;20047;-63
2021/12/19 03:38:00;;;;;;;4.30;0.93;;;7.50;99.90;;;;;;5100366;28;20047;-63
2021/12/19 03:40:36;;;;;;;3.63;0.75;;;7.50;99.90;;;;;;5102383;28;20036;-63
2021/12/19 03:43:22;;;;;;;;;;;7.50;99.90;;;;;;5099771;28;20540;-63
2021/12/19 03:45:49;;;;;;;0.95;0.60;;;7.50;99.90;;;;;;5135124;27;19937;-63
2021/12/19 03:48:16;;;;;;;2.10;0.85;;;7.50;99.90;;;;;;5101038;28;20039;-63
2021/12/19 03:50:48;;;;;;;2.42;0.50;;;7.50;99.90;;;;;;5117702;27;20039;-63
2021/12/19 03:53:16;;;;;;;2.47;0.60;;;7.50;99.90;;;;;;5100651;28;20037;-63
2021/12/19 03:55:42;;;;;;;2.33;0.73;;;7.50;99.90;;;;;;5129848;27;20078;-63
2021/12/19 03:58:09;;;;;;;1.30;0.40;;;7.40;99.90;;;;;;5128908;27;20067;-63
2021/12/19 04:00:35;;;;;;;2.55;1.00;;;7.40;99.90;;;;;;5100993;28;20050;-63
2021/12/19 04:03:05;;;;;;;2.05;0.70;;;7.40;99.90;;;;;;5100574;28;20059;-63
2021/12/19 04:05:31;;;;;;;2.83;0.70;;;7.40;99.90;;;;;;5100062;28;20068;-63
2021/12/19 04:07:57;;;;;;;1.55;0.80;;;7.30;99.90;;;;;;5100360;28;20424;-63
2021/12/19 04:10:27;;;;;;;3.70;1.17;;;7.40;99.90;;;;;;5104916;28;20038;-63
2021/12/19 04:12:53;;;;;;;2.50;1.13;;;7.40;99.90;;;;;;5129305;27;20087;-63
2021/12/19 04:15:19;;;;;;;3.53;1.15;;;7.40;99.90;;;;;;5129818;27;20481;-63
2021/12/19 04:17:45;;;;;;;4.00;1.00;;;7.40;99.90;;;;;;5102385;28;20030;-63
2021/12/19 04:20:11;;;;;;;2.25;0.90;;;7.30;99.90;;;;;;5098224;28;20107;-63
2021/12/19 04:22:37;;;;;;;2.63;0.90;;;7.30;99.90;;;;;;5127337;27;20506;-63
2021/12/19 04:25:04;;;;;;;2.08;0.60;;;7.30;99.90;;;;;;5096713;28;20071;-63
2021/12/19 04:27:30;;;;;;;1.90;0.95;;;7.30;99.90;;;;;;5100248;28;20037;-63
2021/12/19 04:29:56;;;;;;;4.50;0.60;;;7.30;99.90;;;;;;5101977;28;20092;-63
2021/12/19 04:32:30;;;;;;;4.20;0.70;;;7.30;99.90;;;;;;5129136;27;20039;-63
2021/12/19 04:35:11;;;;;;;3.05;0.73;;;7.20;99.90;;;;;;5098625;28;20502;-63
2021/12/19 04:40:27;;;;;;;3.83;0.90;;;7.20;99.90;;;;;;5102484;28;20036;-63
2021/12/19 04:51:18;;;;;;;4.65;1.33;;;7.20;99.90;;;;;;5099722;27;20048;-63
2021/12/19 05:04:14;;;;;;;4.15;1.30;;;7.10;99.90;;;;;;5131736;27;20455;-63
2021/12/19 05:14:38;;;;;;;1.35;0.50;;;7.20;99.90;;;;;;5102932;27;20057;-63
2021/12/19 05:17:08;;;;;;;1.70;0.73;;;7.10;99.90;;;;;;5102427;27;20047;-63
2021/12/19 05:19:52;;;;;;;3.83;1.02;;;7.20;99.90;;;;;;5100496;28;20032;-63
2021/12/19 05:22:19;;;;;;;3.28;0.70;;;7.20;99.90;;;;;;5096952;27;20414;-64
2021/12/19 05:24:59;;;;;;;4.57;1.48;;;7.20;99.90;;;;;;5100134;27;20118;-63
2021/12/19 05:27:25;;;;;;;5.72;1.90;;;7.20;99.90;;;;;;5099913;28;20398;-63
2021/12/19 05:29:50;;;;;;;7.45;2.20;;;7.20;99.90;;;;;;5099340;27;20032;-63
2021/12/19 05:32:16;;;;;;;9.07;2.17;;;7.20;99.90;;;;;;5098903;27;20431;-63
2021/12/19 05:34:41;;;;;;;4.80;2.25;;;7.20;99.90;;;;;;5099113;27;20446;-63
2021/12/19 05:45:20;;;;;;;12.35;2.97;;;7.30;99.90;;;;;;5097741;27;20549;-63
2021/12/19 05:47:52;;;;;;;12.15;3.28;;;7.80;99.90;;;;;;5130777;27;20123;-63
2021/12/19 05:50:20;;;;;;;12.98;3.05;;;7.30;99.90;;;;;;5094927;27;20036;-63
2021/12/19 05:52:47;;;;;;;11.68;2.90;;;7.30;99.90;;;;;;5097606;27;20040;-63
2021/12/19 05:55:13;;;;;;;14.50;3.42;;;7.30;99.90;;;;;;5095021;27;20040;-63
2021/12/19 05:57:39;;;;;;;11.63;3.45;;;7.30;99.90;;;;;;5099485;28;20046;-63
2021/12/19 06:00:09;;;;;;;9.88;3.50;;;7.30;99.90;;;;;;5098433;28;20052;-63
2021/12/19 06:02:35;;;;;;;10.80;4.30;;;7.30;99.90;;;;;;5133222;27;20112;-63
2021/12/19 06:05:08;;;;;;;13.07;5.10;;;7.30;99.90;;;;;;5097965;27;20048;-63
2021/12/19 06:07:34;;;;;;;16.08;5.47;;;7.30;99.90;;;;;;5096591;27;20044;-63
2021/12/19 06:10:00;;;;;;;17.80;5.60;;;7.30;99.90;;;;;;5095172;28;20043;-63
2021/12/19 06:12:26;;;;;;;13.80;4.28;;;7.30;99.90;;;;;;5096231;27;20036;-63
2021/12/19 06:14:52;;;;;;;15.75;4.82;;;7.30;99.90;;;;;;5098941;28;20035;-63
2021/12/19 06:17:18;;;;;;;23.02;6.80;;;7.30;99.90;;;;;;5129689;27;20054;-63
2021/12/19 06:19:43;;;;;;;16.27;5.28;;;7.30;99.90;;;;;;5100120;27;20043;-63
2021/12/19 06:22:09;;;;;;;16.33;6.28;;;7.40;99.90;;;;;;5097350;27;20046;-63
2021/12/19 06:24:35;;;;;;;23.98;7.78;;;7.40;99.90;;;;;;5097138;28;20170;-63
2021/12/19 06:27:03;;;;;;;17.88;8.07;;;7.40;99.90;;;;;;5099600;28;20188;-63
2021/12/19 06:29:30;;;;;;;22.35;8.63;;;7.40;99.90;;;;;;5095155;27;20036;-63
2021/12/19 06:31:56;;;;;;;19.95;8.10;;;7.40;99.90;;;;;;5095194;28;20039;-63
2021/12/19 06:34:23;;;;;;;24.45;9.77;;;7.40;99.90;;;;;;5129993;27;20049;-63
2021/12/19 06:36:51;;;;;;;21.73;10.52;;;7.50;99.90;;;;;;5099695;27;20131;-63
2021/12/19 06:39:17;;;;;;;24.10;8.90;;;7.40;99.90;;;;;;5098322;28;20114;-63
2021/12/19 06:41:42;;;;;;;22.30;9.93;;;7.40;99.90;;;;;;5096579;28;20126;-63
2021/12/19 06:44:08;;;;;;;23.00;8.57;;;7.50;99.90;;;;;;5096481;27;20036;-63
2021/12/19 06:46:34;;;;;;;22.00;8.85;;;7.50;99.90;;;;;;5096733;28;20055;-63
2021/12/19 06:48:59;;;;;;;22.50;8.20;;;7.50;99.90;;;;;;5096298;27;20031;-63
2021/12/19 06:51:25;;;;;;;27.33;9.40;;;7.50;99.90;;;;;;5098185;27;20073;-63
2021/12/19 06:53:51;;;;;;;23.17;9.60;;;7.50;99.90;;;;;;5095990;28;20057;-63
2021/12/19 06:56:16;;;;;;;24.90;8.68;;;7.50;99.90;;;;;;5098243;28;20040;-63
2021/12/19 06:58:42;;;;;;;20.23;8.77;;;7.50;99.90;;;;;;5095971;27;20362;-63
2021/12/19 07:01:08;;;;;;;25.60;9.15;;;7.50;99.90;;;;;;5126791;27;20176;-63
2021/12/19 07:03:35;;;;;;;21.23;9.82;;;7.50;99.90;;;;;;5095307;28;20177;-63
2021/12/19 07:06:01;;;;;;;27.70;10.93;;;7.60;99.90;;;;;;5097651;27;20032;-63
2021/12/19 07:08:27;;;;;;;32.40;10.95;;;7.50;99.90;;;;;;5097933;28;20100;-63
2021/12/19 07:10:53;;;;;;;24.73;10.88;;;7.50;99.90;;;;;;5097234;27;20036;-63
2021/12/19 07:13:21;;;;;;;24.35;10.68;;;7.60;99.90;;;;;;5097159;27;20039;-63
2021/12/19 07:15:51;;;;;;;28.60;10.85;;;7.60;99.90;;;;;;5096850;28;20043;-63
2021/12/19 07:18:17;;;;;;;21.55;9.18;;;7.60;99.90;;;;;;5097443;27;20038;-63
2021/12/19 07:20:43;;;;;;;20.48;7.68;;;7.60;99.90;;;;;;5098955;27;20541;-63
2021/12/19 07:23:14;;;;;;;18.33;8.30;;;7.60;99.90;;;;;;5093642;28;20508;-63
2021/12/19 07:25:40;;;;;;;23.35;7.55;;;7.50;99.90;;;;;;5100542;27;20439;-63
2021/12/19 07:28:07;;;;;;;18.38;6.25;;;7.50;99.90;;;;;;5104775;27;20044;-63
2021/12/19 07:30:36;;;;;;;16.05;5.20;;;7.50;99.90;;;;;;5129244;27;20040;-63
2021/12/19 07:33:02;;;;;;;18.00;5.78;;;7.50;99.90;;;;;;5125825;27;20043;-63
2021/12/19 07:35:30;;;;;;;16.95;5.80;;;7.60;99.90;;;;;;5093623;28;20394;-63
2021/12/19 07:37:56;;;;;;;15.15;5.70;;;7.60;99.90;;;;;;5097431;28;20028;-63
2021/12/19 07:40:24;;;;;;;15.73;4.63;;;7.50;99.90;;;;;;5095046;28;20436;-63
2021/12/19 07:42:50;;;;;;;22.55;6.03;;;7.50;99.90;;;;;;5098569;28;20405;-63
2021/12/19 07:45:17;;;;;;;16.98;5.40;;;7.50;99.90;;;;;;5097227;28;20987;-63
2021/12/19 07:47:44;;;;;;;15.10;4.50;;;7.50;99.90;;;;;;5096613;28;20537;-63
2021/12/19 07:50:11;;;;;;;17.45;4.45;;;7.50;99.90;;;;;;5096503;28;20413;-63
2021/12/19 07:52:38;;;;;;;9.65;3.55;;;7.50;99.90;;;;;;5099095;28;20046;-63
2021/12/19 07:55:06;;;;;;;12.32;3.67;;;7.50;99.90;;;;;;5097539;28;20060;-63
2021/12/19 07:57:31;;;;;;;14.30;4.50;;;7.50;99.90;;;;;;5101708;28;20035;-63
2021/12/19 07:59:57;;;;;;;17.70;4.43;;;7.50;99.90;;;;;;5098915;28;20091;-63
2021/12/19 08:02:23;;;;;;;15.18;4.35;;;7.50;99.90;;;;;;5095565;28;20066;-63
2021/12/19 08:04:48;;;;;;;18.10;4.38;;;7.50;99.90;;;;;;5093968;28;21589;-63
2021/12/19 08:07:16;;;;;;;18.77;4.63;;;7.50;99.90;;;;;;5127632;27;20065;-63
2021/12/19 08:10:14;;;;;;;13.48;3.97;;;7.50;99.90;;;;;;5096906;28;20040;-63
2021/12/19 08:12:40;;;;;;;16.45;4.13;;;7.50;99.90;;;;;;5102055;27;20093;-63
2021/12/19 08:15:07;;;;;;;16.33;4.40;;;7.50;99.90;;;;;;5096790;27;20517;-63
2021/12/19 08:17:33;;;;;;;11.88;3.58;;;7.60;99.90;;;;;;5101576;27;20067;-63
2021/12/19 08:20:01;;;;;;;13.23;3.58;;;7.60;99.90;;;;;;5132262;27;20063;-63
2021/12/19 08:22:28;;;;;;;15.07;4.05;;;7.60;99.90;;;;;;5101953;27;20063;-63
2021/12/19 08:24:56;;;;;;;15.35;4.55;;;7.60;99.90;;;;;;5101423;27;20049;-63
2021/12/19 08:27:22;;;;;;;17.75;3.60;;;7.60;99.90;;;;;;5103554;27;20097;-63
2021/12/19 08:29:47;;;;;;;15.38;3.97;;;7.70;99.90;;;;;;5132314;27;20044;-63
2021/12/19 08:32:13;;;;;;;11.32;3.47;;;7.70;99.90;;;;;;5099389;27;20509;-63
2021/12/19 08:34:38;;;;;;;13.55;4.13;;;7.70;99.90;;;;;;5100941;27;20040;-63
2021/12/19 08:37:05;;;;;;;14.38;3.45;;;7.70;99.90;;;;;;5129997;27;20149;-63
2021/12/19 08:39:33;;;;;;;15.63;3.58;;;7.70;99.90;;;;;;5096464;28;20490;-63
2021/12/19 08:41:59;;;;;;;12.52;3.53;;;7.70;99.90;;;;;;5099928;27;20044;-63
2021/12/19 08:44:24;;;;;;;13.65;3.42;;;7.70;99.90;;;;;;5102248;27;20036;-63
2021/12/19 08:46:50;;;;;;;14.60;3.25;;;7.70;99.90;;;;;;5105157;27;20516;-63
2021/12/19 08:49:16;;;;;;;14.10;3.75;;;7.70;99.90;;;;;;5081929;27;20042;-63
2021/12/19 08:51:42;;;;;;;11.02;3.17;;;7.70;99.90;;;;;;5102048;27;20032;-63
2021/12/19 08:54:08;;;;;;;10.57;2.80;;;7.70;99.90;;;;;;5133168;27;20040;-63
2021/12/19 08:56:34;;;;;;;13.32;3.08;;;7.70;99.90;;;;;;5099601;28;20086;-63
2021/12/19 08:59:00;;;;;;;18.20;3.58;;;7.70;99.90;;;;;;5099445;27;20092;-63
2021/12/19 09:01:26;;;;;;;12.20;3.17;;;7.70;99.90;;;;;;5102672;27;20127;-63
2021/12/19 09:03:52;;;;;;;13.65;3.60;;;7.70;99.90;;;;;;5132275;27;20093;-63
2021/12/19 09:06:18;;;;;;;17.60;3.75;;;7.70;99.90;;;;;;5099024;27;20517;-63
2021/12/19 09:08:43;;;;;;;15.82;4.55;;;7.70;99.90;;;;;;5100000;28;20028;-63
2021/12/19 09:11:09;;;;;;;11.60;3.60;;;7.80;99.90;;;;;;5096558;27;20044;-63
2021/12/19 09:13:35;;;;;;;16.25;3.30;;;7.80;99.90;;;;;;5098289;27;20479;-63
2021/12/19 09:16:01;;;;;;;9.07;2.88;;;7.80;99.90;;;;;;5103446;27;20062;-63
2021/12/19 09:18:32;;;;;;;13.95;3.58;;;7.90;99.90;;;;;;5101416;27;20032;-63
2021/12/19 09:20:59;;;;;;;19.67;3.72;;;7.80;99.90;;;;;;5097957;27;20036;-63
2021/12/19 09:23:27;;;;;;;18.80;3.60;;;7.80;99.90;;;;;;5100317;27;20051;-63
2021/12/19 09:25:53;;;;;;;8.70;2.58;;;7.80;99.90;;;;;;5101988;27;20455;-63
2021/12/19 09:28:18;;;;;;;11.85;4.03;;;7.90;99.90;;;;;;5096897;27;20036;-63
2021/12/19 09:30:45;;;;;;;12.35;3.47;;;7.90;99.90;;;;;;5095840;27;20066;-63
2021/12/19 09:33:11;;;;;;;15.18;3.40;;;7.90;99.90;;;;;;5097460;28;20043;-63
2021/12/19 09:35:37;;;;;;;14.32;4.15;;;7.90;99.90;;;;;;5100687;27;20042;-63
2021/12/19 09:38:05;;;;;;;18.67;3.97;;;7.90;99.90;;;;;;5098124;27;20036;-63
2021/12/19 09:40:37;;;;;;;15.48;3.78;;;7.90;99.90;;;;;;5130024;27;20603;-63
2021/12/19 09:43:31;;;;;;;17.88;4.07;;;7.90;99.90;;;;;;5085038;27;20040;-64
2021/12/19 09:45:59;;;;;;;14.40;3.65;;;7.90;99.90;;;;;;5098369;27;20048;-64
2021/12/19 09:48:26;;;;;;;17.02;3.38;;;7.90;99.90;;;;;;5100282;27;20040;-64
2021/12/19 09:50:53;;;;;;;16.90;4.00;;;7.90;99.90;;;;;;5102265;27;20039;-64
2021/12/19 09:53:18;;;;;;;13.75;2.97;;;8.00;99.90;;;;;;5098268;27;20044;-64
2021/12/19 09:55:44;;;;;;;13.68;3.35;;;8.00;99.90;;;;;;5097471;28;20031;-64
2021/12/19 09:58:10;;;;;;;12.32;2.95;;;8.00;99.90;;;;;;5096006;27;20391;-64
2021/12/19 10:00:36;;;;;;;14.57;3.55;;;8.10;99.90;;;;;;5080805;27;20043;-64
2021/12/19 10:03:01;;;;;;;15.65;3.63;;;8.10;99.90;;;;;;5095454;27;20374;-64
2021/12/19 10:05:28;;;;;;;16.50;4.18;;;8.00;99.90;;;;;;5097704;28;20082;-64
2021/12/19 10:08:03;;;;;;;14.40;3.40;;;8.10;99.90;;;;;;5099161;28;20487;-64
2021/12/19 10:10:54;;;;;;;13.85;3.58;;;8.00;99.90;;;;;;5099912;27;20509;-64
2021/12/19 10:13:34;;;;;;;13.23;2.90;;;8.10;99.90;;;;;;5088382;28;20042;-64
2021/12/19 10:16:01;;;;;;;9.98;2.90;;;8.10;99.90;;;;;;5097200;27;20091;-64
2021/12/19 10:18:26;;;;;;;11.75;2.63;;;8.10;99.90;;;;;;5097786;28;20036;-64
2021/12/19 10:20:57;;;;;;;13.68;2.90;;;8.10;99.90;;;;;;5097197;27;21181;-64
2021/12/19 10:23:28;;;;;;;14.82;3.20;;;8.10;99.90;;;;;;5096342;27;20039;-64
2021/12/19 10:25:59;;;;;;;9.77;4.07;;;8.10;99.90;;;;;;5129492;27;20043;-64
2021/12/19 10:28:26;;;;;;;12.80;2.50;;;8.10;99.90;;;;;;5096471;27;20401;-64
2021/12/19 10:30:51;;;;;;;12.43;2.60;;;8.10;99.90;;;;;;5099040;27;20044;-64
2021/12/19 10:33:23;;;;;;;10.13;3.10;;;8.10;99.90;;;;;;5101093;27;20042;-64
2021/12/19 10:35:53;;;;;;;13.68;3.10;;;8.20;99.90;;;;;;5098112;27;20043;-64
2021/12/19 10:38:30;;;;;;;18.42;2.72;;;8.10;99.90;;;;;;5096571;27;20031;-64
2021/12/19 10:41:01;;;;;;;8.93;2.60;;;8.10;99.90;;;;;;5100659;27;20453;-64
2021/12/19 10:43:30;;;;;;;13.20;2.67;;;8.20;99.90;;;;;;5095984;28;20042;-64
2021/12/19 10:46:06;;;;;;;15.95;3.55;;;8.10;99.90;;;;;;5097282;27;20039;-64
2021/12/19 10:48:38;;;;;;;15.07;3.05;;;8.10;99.90;;;;;;5097128;27;20115;-64
2021/12/19 10:51:07;;;;;;;12.55;3.85;;;8.20;99.90;;;;;;5098344;27;20048;-64
2021/12/19 10:53:38;;;;;;;18.67;3.55;;;8.10;99.90;;;;;;5097590;27;20046;-64
2021/12/19 10:56:12;;;;;;;15.75;2.90;;;8.20;99.90;;;;;;5097570;27;20047;-64
2021/12/19 10:58:43;;;;;;;12.90;2.35;;;8.20;99.90;;;;;;5094155;27;20127;-64
2021/12/19 11:01:18;;;;;;;14.93;2.75;;;8.10;99.90;;;;;;5097524;27;21712;-64
2021/12/19 11:03:51;;;;;;;12.43;3.10;;;8.20;99.90;;;;;;5103061;27;20047;-64
2021/12/19 11:06:18;;;;;;;9.60;2.20;;;8.20;99.90;;;;;;5099961;28;20044;-64
2021/12/19 11:08:45;;;;;;;11.57;2.22;;;8.20;99.90;;;;;;5097783;28;20043;-64
2021/12/19 11:11:11;;;;;;;18.48;3.85;;;8.20;99.90;;;;;;5126440;27;20044;-64
2021/12/19 11:13:38;;;;;;;13.13;3.42;;;8.20;99.90;;;;;;5126506;27;20537;-64
2021/12/19 11:16:04;;;;;;;11.55;2.10;;;8.20;99.90;;;;;;5099034;28;20056;-64
2021/12/19 11:18:30;;;;;;;10.30;2.67;;;8.20;99.90;;;;;;5096106;27;20027;-64
2021/12/19 11:20:56;;;;;;;18.83;3.20;;;8.20;99.90;;;;;;5099663;27;20211;-64
2021/12/19 11:23:22;;;;;;;15.57;2.78;;;8.30;99.90;;;;;;5116011;27;20122;-64
2021/12/19 11:25:49;;;;;;;14.32;3.75;;;8.30;99.90;;;;;;5098429;28;20123;-64
2021/12/19 11:28:14;;;;;;;18.10;3.28;;;8.30;99.90;;;;;;5095234;28;20596;-64
2021/12/19 11:30:40;;;;;;;15.32;3.00;;;8.30;99.90;;;;;;5096652;27;20176;-64
2021/12/19 11:33:40;;;;;;;16.65;2.42;;;8.30;99.90;;;;;;5097300;28;20028;-64
2021/12/19 11:36:07;;;;;;;13.50;3.08;;;8.30;99.90;;;;;;5096971;28;20044;-64
2021/12/19 11:38:36;;;;;;;19.23;3.25;;;8.40;99.90;;;;;;5096630;27;20047;-64
2021/12/19 11:41:11;;;;;;;17.65;2.75;;;8.40;99.90;;;;;;5124988;27;20047;-64
2021/12/19 11:43:39;;;;;;;12.52;2.63;;;8.30;99.90;;;;;;5095274;28;20139;-64
2021/12/19 11:46:14;;;;;;;15.50;2.45;;;8.40;99.90;;;;;;5098083;28;20514;-64
2021/12/19 11:49:15;;;;;;;19.52;3.30;;;8.40;99.90;;;;;;5111958;27;20089;-64
2021/12/19 11:51:40;;;;;;;15.82;2.47;;;8.30;99.90;;;;;;5096980;28;20123;-64
2021/12/19 11:54:13;;;;;;;13.38;2.53;;;8.30;99.90;;;;;;5097322;28;20119;-64
2021/12/19 11:56:38;;;;;;;15.35;2.17;;;8.20;99.90;;;;;;5097424;28;20047;-64
2021/12/19 11:59:18;;;;;;;11.02;1.67;;;8.30;99.90;;;;;;5095274;28;20040;-64
2021/12/19 12:01:44;;;;;;;19.40;2.55;;;8.30;99.90;;;;;;5097456;28;21482;-64
2021/12/19 12:04:21;;;;;;;17.98;2.90;;;8.30;99.90;;;;;;5096520;28;20042;-64
2021/12/19 12:06:58;;;;;;;19.63;2.90;;;8.30;99.90;;;;;;5126501;27;20040;-64
2021/12/19 12:09:39;;;;;;;12.13;1.90;;;8.30;99.90;;;;;;5099456;28;20035;-64
2021/12/19 12:12:09;;;;;;;14.80;2.08;;;8.30;99.90;;;;;;5130125;27;20084;-64
2021/12/19 12:14:40;;;;;;;16.13;2.20;;;8.30;99.90;;;;;;5096781;28;20063;-64
2021/12/19 12:17:12;;;;;;;18.20;2.58;;;8.30;99.90;;;;;;5098363;28;20051;-64
2021/12/19 12:19:48;;;;;;;13.25;2.20;;;8.30;99.90;;;;;;5097055;28;20042;-64
2021/12/19 12:25:24;;;;;;;21.38;3.22;;;8.30;99.90;;;;;;5096095;28;20136;-64
2021/12/19 12:28:02;;;;;;;13.85;2.65;;;8.30;99.90;;;;;;5082738;28;20137;-64
2021/12/19 12:30:30;;;;;;;20.17;3.20;;;8.30;99.90;;;;;;5097658;28;20050;-64
2021/12/19 12:33:00;;;;;;;16.40;3.10;;;8.40;99.90;;;;;;5094646;28;20050;-64
2021/12/19 12:35:28;;;;;;;15.05;2.50;;;8.30;99.90;;;;;;5096657;28;20043;-64
2021/12/19 12:37:55;;;;;;;15.60;2.30;;;8.30;99.90;;;;;;5131358;27;20035;-64
2021/12/19 12:40:43;;;;;;;10.70;2.55;;;8.40;99.90;;;;;;5093635;28;20047;-64
2021/12/19 12:43:17;;;;;;;15.65;3.33;;;8.40;99.90;;;;;;5092027;28;20561;-64
2021/12/19 12:46:01;;;;;;;18.98;2.60;;;8.40;99.90;;;;;;5099217;28;20044;-64
2021/12/19 12:48:35;;;;;;;13.57;2.42;;;8.40;99.90;;;;;;5095755;28;20048;-64
2021/12/19 12:51:04;;;;;;;17.88;2.90;;;8.40;99.90;;;;;;5098090;28;20138;-64
2021/12/19 12:53:32;;;;;;;16.02;3.25;;;8.40;99.90;;;;;;5095260;28;20044;-64
2021/12/19 12:56:08;;;;;;;14.48;2.63;;;8.40;99.90;;;;;;5098983;28;20990;-64
2021/12/19 12:58:40;;;;;;;13.43;2.08;;;8.40;99.90;;;;;;5096481;28;20119;-64
2021/12/19 13:01:45;;;;;;;12.38;1.70;;;8.30;99.90;;;;;;5099550;28;20756;-64
2021/12/19 13:04:19;;;;;;;14.07;2.25;;;8.40;99.90;;;;;;5098195;27;20040;-64
2021/12/19 13:07:02;;;;;;;14.82;2.75;;;8.40;99.90;;;;;;5133984;27;20051;-64
2021/12/19 13:09:28;;;;;;;19.08;2.60;;;8.30;99.90;;;;;;5127926;27;20043;-64
2021/12/19 13:12:05;;;;;;;16.85;2.33;;;8.30;99.90;;;;;;5099474;27;20078;-64
2021/12/19 13:14:34;;;;;;;17.38;2.50;;;8.40;99.90;;;;;;5098898;27;20047;-64
2021/12/19 13:17:02;;;;;;;15.98;2.67;;;8.40;99.90;;;;;;5098558;28;20035;-64
2021/12/19 13:19:40;;;;;;;23.50;3.97;;;8.40;99.90;;;;;;5128186;27;20445;-64
2021/12/19 13:22:12;;;;;;;16.98;2.50;;;8.40;99.90;;;;;;5100947;27;20042;-64
2021/12/19 13:24:38;;;;;;;18.33;2.65;;;8.40;99.90;;;;;;5098814;27;20029;-64
2021/12/19 13:27:08;;;;;;;12.45;2.53;;;8.40;99.90;;;;;;5097667;27;20050;-64
2021/12/19 13:29:56;;;;;;;15.73;2.75;;;8.40;99.90;;;;;;5100743;27;20042;-64
2021/12/19 13:32:29;;;;;;;22.67;2.85;;;8.40;99.90;;;;;;5102022;27;20056;-64
2021/12/19 13:34:56;;;;;;;21.15;2.47;;;8.30;99.90;;;;;;5094627;27;20217;-64
2021/12/19 13:37:23;;;;;;;13.43;2.45;;;8.40;99.90;;;;;;5086908;27;20043;-64
2021/12/19 13:40:10;;;;;;;14.43;3.28;;;8.30;99.90;;;;;;5096368;27;20424;-64
2021/12/19 13:42:40;;;;;;;19.95;3.50;;;8.30;99.90;;;;;;5099940;27;20154;-64
2021/12/19 13:45:30;;;;;;;15.95;2.65;;;8.30;99.90;;;;;;5127239;27;20040;-64
2021/12/19 13:47:59;;;;;;;19.40;2.83;;;8.30;99.90;;;;;;5099467;27;20466;-64
2021/12/19 13:50:26;;;;;;;18.05;2.33;;;8.30;99.90;;;;;;5131322;27;20085;-65
2021/12/19 13:52:52;;;;;;;15.15;2.60;;;8.30;99.90;;;;;;5129965;27;20121;-64
2021/12/19 13:55:18;;;;;;;13.98;1.98;;;8.30;99.90;;;;;;5096522;27;20068;-64
2021/12/19 13:57:45;;;;;;;18.40;2.67;;;8.40;99.90;;;;;;5095420;27;20039;-64
2021/12/19 14:00:28;;;;;;;14.75;2.90;;;8.30;99.90;;;;;;5098429;27;20039;-64
2021/12/19 14:02:53;;;;;;;24.27;3.67;;;8.30;99.90;;;;;;5098941;27;20028;-64